Time;durP1;ratioP1;P1;durP2;ratioP2;P2;SDS_P1;SDS_P2;PMS_P1;PMS_P2;Temp;Humidity;BMP_temperature;BMP_pressure;BME280_temperature;BME280_humidity;BME280_pressure;Samples;Min_cycle;Max_cycle;Signal;HPM_P1;HPM_P2
2023/07/29 11:21:58;;;;;;;3.08;2.90;;;24.40;1.00;;;;;;5050551;28;20630;-75
2023/07/29 11:24:24;;;;;;;2.85;2.65;;;24.30;1.00;;;;;;5042599;28;20217;-75
2023/07/29 11:26:50;;;;;;;2.80;2.60;;;24.00;1.00;;;;;;5043352;28;20186;-80
2023/07/29 11:29:16;;;;;;;2.78;2.58;;;23.90;1.00;;;;;;5041817;28;20186;-75
2023/07/29 11:31:42;;;;;;;3.33;2.70;;;23.50;1.00;;;;;;5042744;28;20664;-75
2023/07/29 11:34:07;;;;;;;3.17;2.97;;;23.10;1.00;;;;;;5038718;28;20178;-74
2023/07/29 11:36:33;;;;;;;2.90;2.70;;;22.80;1.00;;;;;;5041797;28;20682;-74
2023/07/29 11:38:59;;;;;;;3.03;2.72;;;22.70;1.00;;;;;;5040921;28;20185;-75
2023/07/29 11:41:24;;;;;;;2.95;2.75;;;22.60;1.00;;;;;;5041560;28;21018;-74
2023/07/29 11:43:50;;;;;;;8.65;4.28;;;22.60;1.00;;;;;;5042164;28;20197;-73
2023/07/29 11:46:21;;;;;;;5.28;3.50;;;22.60;99.90;;;;;;5041585;28;20681;-74
2023/07/29 11:48:46;;;;;;;5.03;4.25;;;22.50;99.90;;;;;;5040977;28;20236;-73
2023/07/29 11:51:13;;;;;;;4.88;4.47;;;22.30;1.00;;;;;;5041339;28;20642;-73
2023/07/29 11:53:38;;;;;;;5.28;4.88;;;22.50;99.90;;;;;;5041431;28;20220;-73
2023/07/29 11:56:04;;;;;;;4.32;4.03;;;23.00;99.90;;;;;;5041788;28;20198;-74
2023/07/29 11:58:31;;;;;;;5.00;4.60;;;23.50;99.90;;;;;;5040873;28;20182;-74
2023/07/29 12:00:57;;;;;;;4.20;3.90;;;23.90;99.90;;;;;;5041161;28;20224;-74
2023/07/29 12:03:23;;;;;;;5.53;5.10;;;24.10;99.90;;;;;;5041516;28;20167;-73
2023/07/29 12:05:49;;;;;;;6.32;5.93;;;24.30;79.50;;;;;;5041190;28;20279;-72
2023/07/29 12:08:15;;;;;;;5.45;5.05;;;24.30;33.90;;;;;;5040995;28;20232;-74
2023/07/29 12:10:41;;;;;;;6.10;5.60;;;24.20;1.00;;;;;;5041514;28;20567;-75
2023/07/29 12:13:08;;;;;;;5.43;5.13;;;24.10;1.00;;;;;;5041404;28;20239;-74
2023/07/29 12:15:34;;;;;;;4.93;4.63;;;24.10;1.00;;;;;;5041313;28;20285;-74
2023/07/29 12:18:00;;;;;;;6.05;5.40;;;24.00;1.00;;;;;;5040920;28;20319;-75
2023/07/29 12:20:26;;;;;;;5.35;4.90;;;23.60;1.00;;;;;;5040991;28;20218;-74
2023/07/29 12:22:57;;;;;;;5.22;4.72;;;23.50;1.00;;;;;;5041219;28;20190;-73
2023/07/29 12:25:23;;;;;;;5.55;4.72;;;23.40;1.00;;;;;;5040950;28;20232;-75
2023/07/29 12:27:50;;;;;;;4.50;4.20;;;23.50;1.00;;;;;;5040323;28;20269;-75
2023/07/29 12:30:16;;;;;;;4.63;4.32;;;23.70;1.00;;;;;;5040758;28;20713;-75
2023/07/29 12:32:46;;;;;;;10.20;3.88;;;24.00;1.00;;;;;;5030572;28;20190;-75
2023/07/29 12:35:12;;;;;;;4.47;4.18;;;24.10;99.90;;;;;;5026982;28;20281;-74
2023/07/29 12:37:42;;;;;;;4.25;3.95;;;24.20;99.90;;;;;;5026832;28;20674;-75
2023/07/29 12:40:09;;;;;;;4.13;3.83;;;24.00;99.90;;;;;;5027127;28;20217;-73
2023/07/29 12:42:35;;;;;;;4.55;4.25;;;23.60;99.90;;;;;;5027332;28;20179;-75
2023/07/29 12:45:00;;;;;;;4.72;4.43;;;23.30;99.90;;;;;;5025405;28;20580;-74
2023/07/29 12:47:26;;;;;;;4.95;4.55;;;23.20;99.90;;;;;;5026930;28;20581;-74
2023/07/29 12:49:51;;;;;;;4.57;4.28;;;23.10;99.90;;;;;;5025922;28;20190;-75
2023/07/29 12:52:17;;;;;;;5.13;4.72;;;23.00;99.90;;;;;;5026864;28;20186;-74
2023/07/29 12:54:44;;;;;;;5.93;5.53;;;23.00;99.90;;;;;;5025308;28;20256;-75
2023/07/29 12:57:09;;;;;;;5.30;5.00;;;23.30;99.90;;;;;;5026179;28;20182;-76
2023/07/29 12:59:35;;;;;;;5.60;5.30;;;23.50;99.90;;;;;;5026022;28;20650;-74
2023/07/29 13:02:01;;;;;;;5.57;5.18;;;23.70;99.90;;;;;;5026224;28;20642;-74
2023/07/29 13:04:26;;;;;;;5.40;5.00;;;23.80;99.90;;;;;;5026875;28;20193;-74
2023/07/29 13:06:52;;;;;;;5.18;4.78;;;23.70;99.90;;;;;;5026890;28;20598;-74
2023/07/29 13:09:17;;;;;;;5.30;5.00;;;23.50;99.90;;;;;;5026681;28;20205;-74
2023/07/29 13:11:43;;;;;;;5.10;4.70;;;23.60;99.90;;;;;;5026986;28;20190;-74
2023/07/29 13:14:09;;;;;;;4.75;4.35;;;23.90;99.90;;;;;;5027078;28;20236;-73
2023/07/29 13:16:34;;;;;;;4.20;3.90;;;24.20;99.90;;;;;;5026857;28;20210;-74
2023/07/29 13:19:00;;;;;;;4.35;4.05;;;24.30;44.60;;;;;;5026546;28;20582;-73
2023/07/29 13:21:25;;;;;;;4.43;4.13;;;24.30;21.20;;;;;;5026484;28;20210;-75
2023/07/29 13:23:51;;;;;;;4.30;3.90;;;24.40;1.00;;;;;;5026998;28;20187;-74
2023/07/29 13:26:17;;;;;;;3.90;3.60;;;24.50;1.00;;;;;;5026411;28;20206;-74
2023/07/29 13:28:43;;;;;;;3.17;2.97;;;24.30;1.00;;;;;;5026112;28;20191;-74
2023/07/29 13:31:08;;;;;;;2.50;2.25;;;24.10;1.00;;;;;;5026515;28;20179;-73
2023/07/29 13:33:34;;;;;;;2.33;2.20;;;24.10;1.00;;;;;;5026518;28;20245;-74
2023/07/29 13:36:02;;;;;;;2.03;1.92;;;24.00;1.00;;;;;;5025589;28;20234;-76
2023/07/29 13:38:29;;;;;;;1.80;1.70;;;23.90;1.00;;;;;;5026047;28;20685;-75
2023/07/29 13:40:54;;;;;;;2.35;1.90;;;23.80;1.00;;;;;;5026430;28;20210;-75
2023/07/29 13:43:20;;;;;;;1.80;1.70;;;23.70;1.00;;;;;;5025469;28;20190;-75
2023/07/29 13:45:48;;;;;;;2.05;1.55;;;23.50;1.00;;;;;;5026095;28;20207;-75
2023/07/29 13:48:14;;;;;;;2.00;1.52;;;23.50;1.00;;;;;;5025743;28;20175;-74
2023/07/29 13:50:41;;;;;;;1.30;1.20;;;23.60;1.00;;;;;;5025637;28;20214;-75
2023/07/29 13:53:06;;;;;;;1.60;1.45;;;23.70;1.00;;;;;;5026112;28;20232;-75
2023/07/29 13:55:32;;;;;;;1.48;1.27;;;23.90;1.00;;;;;;5025754;28;20203;-75
2023/07/29 13:57:58;;;;;;;2.85;1.27;;;24.20;1.00;;;;;;5025332;28;20189;-76
2023/07/29 14:00:23;;;;;;;1.88;1.40;;;24.30;1.00;;;;;;5024095;28;20199;-74
2023/07/29 14:02:49;;;;;;;1.25;1.15;;;24.50;1.00;;;;;;5026385;28;20191;-75
2023/07/29 14:05:15;;;;;;;1.40;1.30;;;24.50;1.00;;;;;;5025908;28;20253;-74
2023/07/29 14:07:40;;;;;;;1.10;1.10;;;24.40;1.00;;;;;;5024818;28;20270;-75
2023/07/29 14:10:07;;;;;;;1.20;1.10;;;24.40;1.00;;;;;;5026234;28;20261;-74
2023/07/29 14:12:34;;;;;;;1.30;1.10;;;24.30;1.00;;;;;;5025981;28;20274;-75
2023/07/29 14:15:00;;;;;;;2.35;0.70;;;24.30;1.00;;;;;;5025750;28;20855;-75
2023/07/29 14:17:26;;;;;;;0.93;0.93;;;24.30;1.00;;;;;;5025793;28;20580;-75
2023/07/29 14:19:52;;;;;;;0.90;0.90;;;24.20;1.00;;;;;;5024704;28;20214;-75
2023/07/29 14:22:18;;;;;;;1.05;0.95;;;24.20;1.00;;;;;;5025843;28;20210;-75
2023/07/29 14:24:43;;;;;;;2.47;1.02;;;24.30;1.00;;;;;;5024056;28;20215;-75
2023/07/29 14:27:09;;;;;;;0.80;0.80;;;24.50;1.00;;;;;;5025133;28;20211;-75
2023/07/29 14:29:35;;;;;;;3.15;0.90;;;24.70;1.00;;;;;;5025121;28;20185;-75
2023/07/29 14:32:00;;;;;;;1.10;1.00;;;24.70;1.00;;;;;;5025589;28;21158;-75
2023/07/29 14:34:26;;;;;;;1.00;1.00;;;24.60;1.00;;;;;;5025433;28;20178;-74
2023/07/29 14:36:51;;;;;;;1.40;1.13;;;24.30;1.00;;;;;;5025100;28;20213;-75
2023/07/29 14:39:17;;;;;;;0.80;0.80;;;24.20;1.00;;;;;;5024552;28;20266;-75
2023/07/29 14:41:43;;;;;;;1.48;0.88;;;24.10;1.00;;;;;;5025001;28;20210;-75
2023/07/29 14:44:08;;;;;;;0.80;0.80;;;23.90;1.00;;;;;;5025620;28;20673;-74
2023/07/29 14:46:34;;;;;;;1.17;1.08;;;23.70;1.00;;;;;;5024893;28;20218;-75
2023/07/29 14:49:00;;;;;;;1.35;0.90;;;23.70;1.00;;;;;;5024675;28;20179;-75
2023/07/29 14:51:25;;;;;;;1.75;1.40;;;23.70;1.00;;;;;;5024963;28;20265;-75
2023/07/29 14:53:52;;;;;;;0.80;0.80;;;23.70;1.00;;;;;;5025369;28;20199;-74
2023/07/29 14:56:17;;;;;;;1.00;1.00;;;23.70;1.00;;;;;;5024649;28;20210;-74
2023/07/29 14:58:44;;;;;;;1.10;0.88;;;23.80;1.00;;;;;;5024145;28;20197;-75
2023/07/29 15:01:10;;;;;;;1.17;1.00;;;23.90;1.00;;;;;;5024297;28;20729;-76
2023/07/29 15:03:35;;;;;;;0.80;0.80;;;24.00;1.00;;;;;;5023752;28;20262;-76
2023/07/29 15:06:03;;;;;;;1.35;0.90;;;24.00;99.90;;;;;;5025139;28;20692;-76
2023/07/29 15:08:28;;;;;;;1.15;1.05;;;24.00;1.00;;;;;;5024639;28;20171;-75
2023/07/29 15:10:55;;;;;;;0.82;0.80;;;24.20;99.90;;;;;;5023739;28;20205;-75
2023/07/29 15:13:21;;;;;;;1.27;1.10;;;24.30;99.90;;;;;;5023296;28;20179;-75
2023/07/29 15:15:48;;;;;;;1.30;1.00;;;24.30;99.90;;;;;;5023604;28;20673;-76
2023/07/29 15:18:13;;;;;;;1.30;0.95;;;24.30;99.90;;;;;;5022765;28;20182;-75
2023/07/29 15:20:39;;;;;;;0.90;0.90;;;24.30;99.90;;;;;;5023476;28;20665;-76
2023/07/29 15:23:06;;;;;;;1.48;0.80;;;24.30;99.90;;;;;;5024091;28;20187;-71
2023/07/29 15:25:38;;;;;;;1.27;1.00;;;24.30;99.90;;;;;;5025723;28;20666;-83
2023/07/29 15:28:04;;;;;;;1.08;1.00;;;24.40;99.90;;;;;;5023550;28;20174;-78
2023/07/29 15:30:30;;;;;;;1.10;1.00;;;24.50;99.90;;;;;;5024067;28;20252;-81
2023/07/29 15:32:55;;;;;;;1.13;0.90;;;24.70;99.90;;;;;;5023735;28;20187;-76
2023/07/29 15:35:24;;;;;;;1.00;0.90;;;24.50;99.90;;;;;;5022538;23;20329;-75
2023/07/29 15:37:50;;;;;;;0.90;0.90;;;24.50;1.00;;;;;;5004780;28;20183;-75
2023/07/29 15:40:16;;;;;;;1.10;1.00;;;24.50;1.00;;;;;;5005307;28;20210;-77
2023/07/29 15:42:42;;;;;;;0.80;0.80;;;24.50;1.00;;;;;;5001663;28;20195;-79
2023/07/29 15:45:08;;;;;;;0.80;0.80;;;24.70;1.00;;;;;;4988077;28;20227;-80
2023/07/29 15:47:34;;;;;;;2.72;2.53;;;24.70;1.00;;;;;;5000684;28;20748;-74
2023/07/29 15:50:00;;;;;;;4.10;3.72;;;24.60;1.00;;;;;;5003164;28;20184;-80
2023/07/29 15:52:26;;;;;;;2.45;2.25;;;24.60;1.00;;;;;;5002350;28;20180;-77
2023/07/29 15:54:54;;;;;;;0.93;0.90;;;24.50;99.90;;;;;;5003723;28;20302;-75
2023/07/29 15:57:20;;;;;;;1.00;0.90;;;24.50;99.90;;;;;;5003756;28;20278;-77
2023/07/29 15:59:45;;;;;;;0.77;0.77;;;24.50;99.90;;;;;;5006208;28;20624;-80
2023/07/29 16:02:11;;;;;;;1.38;1.00;;;24.60;99.90;;;;;;5005537;28;20180;-80
2023/07/29 16:04:37;;;;;;;1.50;0.98;;;24.50;1.00;;;;;;5004298;28;20535;-75
2023/07/29 16:07:02;;;;;;;0.95;0.95;;;24.50;1.00;;;;;;5004772;28;20176;-76
2023/07/29 16:09:28;;;;;;;1.35;1.25;;;24.40;1.00;;;;;;5004596;28;20184;-76
2023/07/29 16:11:54;;;;;;;1.20;1.10;;;24.50;1.00;;;;;;5007150;28;20733;-76
2023/07/29 16:14:19;;;;;;;1.20;1.10;;;24.50;1.00;;;;;;4990205;28;20188;-76
2023/07/29 16:16:45;;;;;;;1.35;1.25;;;24.50;1.00;;;;;;5008037;28;20187;-75
2023/07/29 16:19:11;;;;;;;2.25;0.93;;;24.50;1.00;;;;;;5007118;28;20179;-76
2023/07/29 16:21:37;;;;;;;1.30;1.20;;;24.30;1.00;;;;;;4989319;28;20215;-76
2023/07/29 16:24:03;;;;;;;1.20;1.10;;;24.00;1.00;;;;;;5006134;28;20594;-78
2023/07/29 16:26:29;;;;;;;1.20;1.10;;;23.80;1.00;;;;;;5007573;28;20543;-75
2023/07/29 16:28:54;;;;;;;1.20;1.10;;;23.70;1.00;;;;;;5006019;28;20191;-76
2023/07/29 16:31:20;;;;;;;1.20;1.10;;;23.70;1.00;;;;;;5007247;28;20191;-75
2023/07/29 16:33:46;;;;;;;2.72;1.17;;;23.70;1.00;;;;;;4989701;28;20655;-75
2023/07/29 16:36:12;;;;;;;1.25;1.15;;;23.70;1.00;;;;;;5006761;28;20234;-75
2023/07/29 16:38:37;;;;;;;1.80;1.20;;;23.60;1.00;;;;;;5006537;28;20183;-77
2023/07/29 16:41:03;;;;;;;1.40;1.30;;;23.70;1.00;;;;;;4990217;28;20208;-76
2023/07/29 16:43:29;;;;;;;1.73;1.23;;;23.90;1.00;;;;;;4990874;28;20199;-78
2023/07/29 16:45:54;;;;;;;1.40;1.25;;;23.80;99.90;;;;;;5008149;28;20234;-77
2023/07/29 16:48:20;;;;;;;1.65;1.35;;;23.70;99.90;;;;;;5007801;28;20228;-76
2023/07/29 16:50:46;;;;;;;1.38;1.27;;;23.40;99.90;;;;;;5007606;28;20187;-76
2023/07/29 16:53:11;;;;;;;1.63;1.20;;;23.20;99.90;;;;;;5007713;28;20206;-77
2023/07/29 16:55:37;;;;;;;1.40;1.30;;;23.10;99.90;;;;;;5007333;28;20214;-76
2023/07/29 16:58:02;;;;;;;1.60;1.50;;;22.90;99.90;;;;;;5007292;28;20307;-76
2023/07/29 17:00:28;;;;;;;1.33;1.23;;;22.80;1.00;;;;;;5007538;28;20234;-77
2023/07/29 17:02:54;;;;;;;1.40;1.30;;;22.70;1.00;;;;;;4990362;28;20263;-77
2023/07/29 17:05:19;;;;;;;1.55;1.35;;;22.50;1.00;;;;;;5006642;28;20258;-76
2023/07/29 17:07:45;;;;;;;2.63;1.65;;;22.40;1.00;;;;;;5006220;28;20194;-76
2023/07/29 17:10:11;;;;;;;1.63;1.52;;;22.30;1.00;;;;;;5006580;28;20205;-76
2023/07/29 17:12:36;;;;;;;1.60;1.50;;;22.20;1.00;;;;;;5005153;28;20187;-77
2023/07/29 17:15:02;;;;;;;1.60;1.50;;;22.10;1.00;;;;;;5006659;28;20203;-76
2023/07/29 17:17:28;;;;;;;1.92;1.77;;;22.00;1.00;;;;;;5006690;28;20184;-77
2023/07/29 17:19:54;;;;;;;1.75;1.65;;;21.90;1.00;;;;;;5006595;28;20193;-76
2023/07/29 17:22:19;;;;;;;1.80;1.70;;;21.80;1.00;;;;;;5007259;28;20184;-77
2023/07/29 17:24:45;;;;;;;1.77;1.67;;;21.80;1.00;;;;;;5004510;28;20794;-76
2023/07/29 17:27:11;;;;;;;1.80;1.70;;;21.90;1.00;;;;;;5006794;28;20263;-77
2023/07/29 17:29:51;;;;;;;1.88;1.75;;;21.90;1.00;;;;;;5007217;28;20283;-76
2023/07/29 17:32:16;;;;;;;2.00;1.80;;;21.80;1.00;;;;;;4988149;28;20172;-76
2023/07/29 17:34:43;;;;;;;2.10;2.00;;;21.80;1.00;;;;;;5005959;28;20306;-76
2023/07/29 17:37:08;;;;;;;3.53;2.05;;;21.80;1.00;;;;;;5003743;28;20187;-75
2023/07/29 17:39:35;;;;;;;2.35;1.90;;;21.80;1.00;;;;;;5003857;28;20180;-76
2023/07/29 17:42:01;;;;;;;2.13;2.03;;;21.70;1.00;;;;;;5005744;28;20183;-75
2023/07/29 17:44:27;;;;;;;1.98;1.88;;;21.70;1.00;;;;;;5006145;28;20206;-75
2023/07/29 17:46:53;;;;;;;1.92;1.77;;;21.70;1.00;;;;;;5005924;28;20195;-76
2023/07/29 17:49:18;;;;;;;2.00;1.90;;;21.60;1.00;;;;;;4988445;28;20184;-75
2023/07/29 17:51:44;;;;;;;1.80;1.70;;;21.60;1.00;;;;;;5006310;28;20267;-76
2023/07/29 17:54:10;;;;;;;1.98;1.88;;;21.60;1.00;;;;;;5007417;28;20274;-75
2023/07/29 17:56:35;;;;;;;2.30;2.08;;;21.50;1.00;;;;;;5006726;28;20214;-77
2023/07/29 17:59:01;;;;;;;1.90;1.80;;;21.50;1.00;;;;;;5004591;28;20240;-76
2023/07/29 18:01:26;;;;;;;2.08;1.98;;;21.50;1.00;;;;;;5004575;28;20215;-76
2023/07/29 18:03:52;;;;;;;2.17;1.98;;;21.60;1.00;;;;;;4986812;28;20239;-76
2023/07/29 18:06:18;;;;;;;2.97;2.00;;;21.70;1.00;;;;;;4986815;28;20195;-76
2023/07/29 18:08:43;;;;;;;2.30;2.10;;;21.70;1.00;;;;;;4985870;28;20191;-76
2023/07/29 18:11:09;;;;;;;4.10;2.20;;;21.80;1.00;;;;;;5004139;28;20184;-76
2023/07/29 18:13:35;;;;;;;2.38;2.17;;;21.90;1.00;;;;;;5004870;28;20349;-76
2023/07/29 18:16:01;;;;;;;2.30;2.10;;;21.90;1.00;;;;;;4988354;28;20211;-75
2023/07/29 18:18:27;;;;;;;2.85;1.92;;;22.00;1.00;;;;;;5005320;28;20192;-77
2023/07/29 18:20:52;;;;;;;2.38;1.90;;;22.00;1.00;;;;;;5005621;28;20207;-76
2023/07/29 18:23:18;;;;;;;2.03;1.90;;;21.70;1.00;;;;;;5005394;28;20179;-75
2023/07/29 18:25:44;;;;;;;2.70;2.10;;;21.60;1.00;;;;;;5005528;28;20277;-75
2023/07/29 18:28:10;;;;;;;2.20;2.00;;;21.40;1.00;;;;;;5004709;28;20219;-76
2023/07/29 18:30:36;;;;;;;2.13;1.70;;;21.10;1.00;;;;;;4986747;28;20234;-76
2023/07/29 18:33:03;;;;;;;2.40;2.20;;;20.90;1.00;;;;;;5005981;28;20238;-75
2023/07/29 18:35:29;;;;;;;2.35;2.10;;;20.80;1.00;;;;;;5004506;28;20269;-75
2023/07/29 18:37:57;;;;;;;2.00;1.90;;;20.80;9.40;;;;;;5004418;28;20210;-75
2023/07/29 18:40:24;;;;;;;3.55;2.38;;;20.70;1.00;;;;;;5005475;28;20612;-76
2023/07/29 18:42:50;;;;;;;2.13;2.03;;;20.60;84.20;;;;;;5004865;28;20188;-76
2023/07/29 18:45:15;;;;;;;2.42;2.08;;;20.60;44.00;;;;;;5005503;28;20693;-76
2023/07/29 18:47:42;;;;;;;2.22;1.98;;;20.60;21.30;;;;;;4988831;28;20179;-76
2023/07/29 18:50:08;;;;;;;2.28;2.17;;;20.50;53.20;;;;;;5006488;28;20287;-76
2023/07/29 18:52:33;;;;;;;2.20;2.00;;;20.50;83.70;;;;;;5005880;28;20262;-75
2023/07/29 18:54:59;;;;;;;2.47;2.28;;;20.50;92.10;;;;;;5004749;28;20270;-77
2023/07/29 18:57:25;;;;;;;2.00;1.90;;;20.50;45.50;;;;;;4988150;28;20263;-77
2023/07/29 18:59:51;;;;;;;5.30;2.35;;;20.40;35.80;;;;;;5005549;28;20614;-76
2023/07/29 19:02:17;;;;;;;2.30;2.20;;;20.40;19.50;;;;;;4988435;28;20192;-78
2023/07/29 19:04:46;;;;;;;2.47;2.28;;;20.40;32.60;;;;;;5005702;28;20207;-76
2023/07/29 19:07:16;;;;;;;2.30;2.10;;;20.30;79.80;;;;;;5005662;28;20242;-76
2023/07/29 19:09:44;;;;;;;2.10;2.00;;;20.30;40.90;;;;;;5005425;28;20191;-76
2023/07/29 19:12:10;;;;;;;2.40;2.20;;;20.20;53.00;;;;;;5005912;28;20182;-77
2023/07/29 19:14:35;;;;;;;3.22;2.53;;;20.20;92.80;;;;;;5005001;28;20222;-76
2023/07/29 19:17:01;;;;;;;2.65;2.28;;;20.10;99.90;;;;;;5001744;28;20256;-76
2023/07/29 19:19:27;;;;;;;2.47;2.10;;;19.90;99.90;;;;;;5001535;28;20543;-76
2023/07/29 19:21:52;;;;;;;2.80;2.30;;;19.70;99.90;;;;;;5004092;28;20218;-76
2023/07/29 19:24:18;;;;;;;2.08;1.98;;;19.60;99.90;;;;;;5004543;28;20175;-77
2023/07/29 19:26:43;;;;;;;2.72;2.53;;;19.50;99.90;;;;;;5004640;28;20186;-76
2023/07/29 19:29:12;;;;;;;2.58;2.38;;;19.40;99.90;;;;;;5003752;28;20590;-77
2023/07/29 19:31:38;;;;;;;2.80;2.60;;;19.30;99.90;;;;;;5004543;28;20246;-76
2023/07/29 19:34:04;;;;;;;2.63;2.53;;;19.10;99.90;;;;;;5004143;28;20183;-76
2023/07/29 19:36:32;;;;;;;2.95;2.72;;;19.00;1.00;;;;;;5004970;28;20218;-76
2023/07/29 19:38:58;;;;;;;2.50;2.30;;;19.00;1.00;;;;;;5004158;28;20179;-76
2023/07/29 19:41:26;;;;;;;2.60;2.50;;;18.90;1.00;;;;;;5004296;28;20199;-76
2023/07/29 19:43:53;;;;;;;3.50;2.83;;;19.00;1.00;;;;;;5008903;28;20203;-76
2023/07/29 19:46:19;;;;;;;2.83;2.63;;;18.80;1.00;;;;;;4991350;28;20206;-76
2023/07/29 19:48:45;;;;;;;2.80;2.60;;;18.80;1.00;;;;;;5007592;28;20192;-76
2023/07/29 19:51:10;;;;;;;2.75;2.60;;;18.70;1.00;;;;;;5008683;28;20192;-76
2023/07/29 19:53:36;;;;;;;3.03;2.75;;;18.60;70.20;;;;;;5008311;28;20184;-76
2023/07/29 19:56:02;;;;;;;3.95;2.80;;;18.60;28.50;;;;;;5008982;28;20532;-76
2023/07/29 19:58:28;;;;;;;2.88;2.55;;;18.50;94.10;;;;;;5007889;28;20184;-76
2023/07/29 20:00:54;;;;;;;3.17;2.92;;;18.50;99.90;;;;;;5008829;28;20261;-76
2023/07/29 20:03:19;;;;;;;3.28;2.70;;;18.40;99.90;;;;;;5008062;28;20187;-76
2023/07/29 20:05:46;;;;;;;3.08;2.88;;;18.40;99.90;;;;;;5007641;28;20322;-76
2023/07/29 20:08:11;;;;;;;3.63;2.65;;;18.30;99.90;;;;;;5007681;28;20206;-77
2023/07/29 20:10:37;;;;;;;2.58;2.30;;;18.30;99.90;;;;;;5007729;28;20184;-77
2023/07/29 20:13:02;;;;;;;2.80;2.60;;;18.20;99.90;;;;;;5008036;28;20187;-76
2023/07/29 20:15:28;;;;;;;2.85;2.65;;;18.10;99.90;;;;;;5007978;28;20204;-76
2023/07/29 20:17:54;;;;;;;2.70;2.50;;;18.10;99.90;;;;;;4990008;28;20183;-76
2023/07/29 20:20:19;;;;;;;2.70;2.50;;;18.10;99.90;;;;;;5008946;28;20207;-76
2023/07/29 20:22:45;;;;;;;2.63;2.40;;;18.10;99.90;;;;;;5009349;28;20188;-76
2023/07/29 20:25:10;;;;;;;2.25;2.15;;;18.10;99.90;;;;;;5008538;28;20318;-75
2023/07/29 20:27:37;;;;;;;2.00;1.90;;;18.10;99.90;;;;;;5007776;28;20188;-74
2023/07/29 20:30:02;;;;;;;2.08;1.98;;;18.00;69.00;;;;;;5007363;28;20752;-74
2023/07/29 20:32:28;;;;;;;1.95;1.85;;;17.90;1.00;;;;;;5007541;28;20282;-76
2023/07/29 20:34:54;;;;;;;2.08;1.77;;;17.90;1.00;;;;;;5007949;28;20221;-76
2023/07/29 20:37:19;;;;;;;1.70;1.60;;;17.80;1.00;;;;;;5007878;28;20261;-76
2023/07/29 20:39:45;;;;;;;1.65;1.55;;;17.80;13.00;;;;;;5007871;28;20188;-76
2023/07/29 20:42:11;;;;;;;2.20;2.00;;;17.70;91.60;;;;;;5008043;28;20179;-76
2023/07/29 20:44:38;;;;;;;1.45;1.35;;;17.80;22.50;;;;;;4990697;28;20662;-76
2023/07/29 20:47:04;;;;;;;1.40;1.30;;;17.80;1.00;;;;;;5007590;28;20180;-76
2023/07/29 20:49:30;;;;;;;1.95;1.40;;;17.70;1.00;;;;;;5007893;28;20270;-76
2023/07/29 20:51:56;;;;;;;1.50;1.40;;;17.70;1.00;;;;;;5008842;28;20287;-76
2023/07/29 20:54:22;;;;;;;1.60;1.50;;;17.60;14.30;;;;;;5007948;28;20184;-76
2023/07/29 20:56:48;;;;;;;1.52;1.42;;;17.60;23.30;;;;;;5009561;28;20215;-75
2023/07/29 20:59:13;;;;;;;1.23;1.13;;;17.50;99.90;;;;;;5008347;28;20218;-76
2023/07/29 21:01:42;;;;;;;1.50;1.40;;;17.50;12.40;;;;;;4991771;28;20199;-76
2023/07/29 21:04:07;;;;;;;1.30;1.20;;;17.50;39.10;;;;;;5009407;28;20179;-76
2023/07/29 21:06:34;;;;;;;2.08;1.17;;;17.50;1.00;;;;;;5009425;28;20206;-75
2023/07/29 21:09:02;;;;;;;1.70;1.60;;;17.60;1.00;;;;;;5008781;28;20588;-76
2023/07/29 21:11:28;;;;;;;1.30;1.20;;;17.60;1.00;;;;;;5010000;28;20214;-76
2023/07/29 21:13:53;;;;;;;1.40;1.30;;;17.50;1.00;;;;;;5010886;28;20211;-76
2023/07/29 21:16:20;;;;;;;1.45;1.35;;;17.40;1.00;;;;;;5010334;28;20674;-75
2023/07/29 21:18:47;;;;;;;1.77;1.67;;;17.40;1.00;;;;;;5009701;28;20183;-77
2023/07/29 21:21:14;;;;;;;1.58;1.45;;;17.30;1.00;;;;;;5012289;28;20187;-77
2023/07/29 21:23:43;;;;;;;1.50;1.40;;;17.20;1.00;;;;;;5012536;28;20587;-76
2023/07/29 21:26:09;;;;;;;1.52;1.42;;;17.20;9.50;;;;;;5012007;28;20203;-76
2023/07/29 21:28:34;;;;;;;2.17;1.50;;;17.00;99.90;;;;;;5035569;23;20250;-87
2023/07/29 21:31:02;;;;;;;1.55;1.45;;;16.80;99.90;;;;;;4991892;28;20195;-85
2023/07/29 21:33:28;;;;;;;1.85;1.75;;;16.70;99.90;;;;;;5012697;28;20213;-86
2023/07/29 21:35:53;;;;;;;2.67;1.45;;;16.80;1.00;;;;;;4992389;28;20215;-87
2023/07/29 21:38:19;;;;;;;1.40;1.30;;;16.50;99.90;;;;;;5009114;28;20192;-85
2023/07/29 21:40:51;;;;;;;1.60;1.50;;;16.40;1.00;;;;;;4991428;28;20302;-86
2023/07/29 21:43:18;;;;;;;2.38;1.30;;;16.80;99.90;;;;;;5009218;28;20545;-85
2023/07/29 21:45:44;;;;;;;1.77;1.67;;;16.40;47.30;;;;;;4991978;28;20653;-86
2023/07/29 21:48:09;;;;;;;1.58;1.48;;;16.30;1.00;;;;;;4992137;28;20275;-85
2023/07/29 21:50:35;;;;;;;1.83;1.73;;;16.50;1.30;;;;;;5008563;28;20238;-85
2023/07/29 21:53:00;;;;;;;2.17;1.75;;;16.40;1.00;;;;;;5008617;28;20196;-85
2023/07/29 21:55:26;;;;;;;2.05;1.33;;;16.30;99.90;;;;;;4991354;28;20307;-85
2023/07/29 21:57:52;;;;;;;1.70;1.60;;;15.30;1.00;;;;;;5009163;28;20200;-85
2023/07/29 22:00:17;;;;;;;1.70;1.60;;;16.20;21.00;;;;;;4990641;28;20229;-86
2023/07/29 22:02:43;;;;;;;1.67;1.58;;;16.10;92.50;;;;;;5009266;28;20241;-85
2023/07/29 22:05:08;;;;;;;2.65;1.80;;;16.00;99.90;;;;;;5007884;28;20179;-85
2023/07/29 22:07:34;;;;;;;3.42;1.92;;;15.90;1.00;;;;;;4990604;28;20211;-85
2023/07/29 22:09:59;;;;;;;1.60;1.50;;;16.00;1.00;;;;;;4990608;28;20199;-85
2023/07/29 22:12:31;;;;;;;2.10;1.70;;;15.80;99.90;;;;;;4990779;28;20175;-86
2023/07/29 22:14:58;;;;;;;2.30;1.65;;;15.80;99.90;;;;;;4989217;28;20190;-85
2023/07/29 22:17:23;;;;;;;1.75;1.65;;;15.70;1.00;;;;;;4990137;28;20619;-85
2023/07/29 22:19:49;;;;;;;1.60;1.50;;;16.20;1.00;;;;;;4988880;28;20203;-86
2023/07/29 22:22:15;;;;;;;2.40;1.65;;;15.90;99.90;;;;;;4990000;28;20188;-85
2023/07/29 22:24:40;;;;;;;1.60;1.50;;;15.80;99.90;;;;;;5007445;28;20294;-85
2023/07/29 22:27:07;;;;;;;1.60;1.50;;;15.90;99.90;;;;;;4990932;28;20237;-85
2023/07/29 22:29:33;;;;;;;1.83;1.63;;;16.10;1.00;;;;;;4989731;28;20247;-85
2023/07/29 22:31:59;;;;;;;1.70;1.60;;;15.70;1.00;;;;;;5007124;28;20227;-86
2023/07/29 22:34:25;;;;;;;1.67;1.58;;;;;;;;;;4989806;28;20656;-86
2023/07/29 22:36:50;;;;;;;2.17;1.90;;;16.10;1.00;;;;;;4990283;28;20191;-87
2023/07/29 22:39:16;;;;;;;2.00;1.80;;;16.40;99.90;;;;;;4989916;28;20213;-86
2023/07/29 22:41:41;;;;;;;1.70;1.60;;;16.00;1.00;;;;;;4990146;28;20211;-86
2023/07/29 22:44:07;;;;;;;1.73;1.63;;;16.00;1.00;;;;;;4989950;28;20183;-86
2023/07/29 22:46:33;;;;;;;1.80;1.50;;;15.90;1.00;;;;;;4990108;28;20184;-85
2023/07/29 22:48:58;;;;;;;1.70;1.60;;;15.90;99.90;;;;;;4990185;28;20205;-85
2023/07/29 22:51:24;;;;;;;1.70;1.60;;;15.80;99.90;;;;;;4989623;28;20184;-86
2023/07/29 22:53:49;;;;;;;2.03;1.80;;;15.90;99.90;;;;;;5007327;28;20195;-85
2023/07/29 22:56:15;;;;;;;1.40;1.30;;;15.80;1.00;;;;;;5007262;28;20246;-85
2023/07/29 22:58:40;;;;;;;2.30;1.70;;;15.90;99.90;;;;;;4989268;28;20184;-84
2023/07/29 23:01:06;;;;;;;1.75;1.65;;;16.00;1.00;;;;;;4988940;28;20202;-85
2023/07/29 23:03:32;;;;;;;2.13;1.92;;;16.00;1.00;;;;;;4989129;28;20294;-85
2023/07/29 23:05:58;;;;;;;1.98;1.75;;;15.80;99.90;;;;;;4988870;28;20179;-86
2023/07/29 23:08:23;;;;;;;1.83;1.60;;;15.70;99.90;;;;;;4989002;28;20179;-85
2023/07/29 23:10:49;;;;;;;1.73;1.63;;;15.70;1.00;;;;;;4989172;28;20221;-85
2023/07/29 23:13:14;;;;;;;1.88;1.35;;;15.80;99.90;;;;;;4989570;28;20593;-85
2023/07/29 23:15:44;;;;;;;1.67;1.55;;;15.70;99.90;;;;;;4989150;28;20182;-86
2023/07/29 23:18:09;;;;;;;1.77;1.50;;;15.70;1.00;;;;;;5006687;28;20207;-86
2023/07/29 23:20:35;;;;;;;1.60;1.50;;;16.00;1.00;;;;;;4988653;28;20697;-87
2023/07/29 23:23:02;;;;;;;1.60;1.50;;;16.30;1.00;;;;;;4988973;28;20180;-88
2023/07/29 23:25:29;;;;;;;1.70;1.60;;;15.80;21.50;;;;;;5005149;28;20176;-86
2023/07/29 23:27:55;;;;;;;1.70;1.60;;;15.80;1.00;;;;;;4988610;28;20645;-85
2023/07/29 23:30:20;;;;;;;1.60;1.50;;;15.90;99.90;;;;;;4988369;28;20214;-85
2023/07/29 23:32:46;;;;;;;1.40;1.30;;;16.20;99.90;;;;;;5006746;28;20198;-84
2023/07/29 23:35:12;;;;;;;1.65;1.55;;;16.20;99.90;;;;;;4988819;28;20194;-86
2023/07/29 23:37:37;;;;;;;1.67;1.30;;;16.30;99.90;;;;;;4988612;28;20192;-86
2023/07/29 23:40:04;;;;;;;1.50;1.40;;;16.40;1.00;;;;;;4988836;28;20318;-85
2023/07/29 23:42:30;;;;;;;1.33;1.20;;;16.50;1.00;;;;;;4988976;28;20230;-86
2023/07/29 23:44:56;;;;;;;1.30;1.20;;;16.50;1.00;;;;;;4988651;28;20627;-87
2023/07/29 23:47:21;;;;;;;1.50;1.40;;;16.60;1.00;;;;;;4988711;28;20176;-85
2023/07/29 23:49:47;;;;;;;1.50;1.40;;;16.60;1.00;;;;;;4989118;28;20218;-86
2023/07/29 23:52:12;;;;;;;2.45;1.48;;;16.40;1.00;;;;;;4988693;28;20650;-87
2023/07/29 23:54:38;;;;;;;2.28;1.40;;;16.20;1.00;;;;;;4989162;28;20188;-86
2023/07/29 23:57:04;;;;;;;1.58;1.48;;;16.20;99.90;;;;;;4988721;28;20559;-86
2023/07/29 23:59:29;;;;;;;1.50;1.30;;;16.20;99.90;;;;;;4988018;28;20297;-85
